sensor_id;sensor_type;location;lat;lon;timestamp;temperature;humidity
6375;DHT22;35400;45.472;-122.822;2022-11-18T00:01:05;7.50;90.60
6375;DHT22;35400;45.472;-122.822;2022-11-18T00:03:32;7.40;90.70
6375;DHT22;35400;45.472;-122.822;2022-11-18T00:06:00;7.40;90.60
6375;DHT22;35400;45.472;-122.822;2022-11-18T00:08:27;7.40;90.70
6375;DHT22;35400;45.472;-122.822;2022-11-18T00:10:54;7.30;90.40
6375;DHT22;35400;45.472;-122.822;2022-11-18T00:13:20;7.30;90.50
6375;DHT22;35400;45.472;-122.822;2022-11-18T00:16:11;7.20;90.40
6375;DHT22;35400;45.472;-122.822;2022-11-18T00:18:38;7.20;90.50
6375;DHT22;35400;45.472;-122.822;2022-11-18T00:21:10;7.10;90.40
6375;DHT22;35400;45.472;-122.822;2022-11-18T00:23:38;7.00;90.40
6375;DHT22;35400;45.472;-122.822;2022-11-18T00:26:10;7.00;90.30
6375;DHT22;35400;45.472;-122.822;2022-11-18T00:28:38;7.00;90.40
6375;DHT22;35400;45.472;-122.822;2022-11-18T00:31:09;6.90;90.40
6375;DHT22;35400;45.472;-122.822;2022-11-18T00:33:36;6.90;90.30
6375;DHT22;35400;45.472;-122.822;2022-11-18T00:36:05;6.90;90.40
6375;DHT22;35400;45.472;-122.822;2022-11-18T00:38:32;6.80;90.50
6375;DHT22;35400;45.472;-122.822;2022-11-18T00:41:00;6.80;90.40
6375;DHT22;35400;45.472;-122.822;2022-11-18T00:43:28;6.70;90.40
6375;DHT22;35400;45.472;-122.822;2022-11-18T00:45:55;6.70;90.30
6375;DHT22;35400;45.472;-122.822;2022-11-18T00:48:22;6.60;90.40
6375;DHT22;35400;45.472;-122.822;2022-11-18T00:50:53;6.60;90.40
6375;DHT22;35400;45.472;-122.822;2022-11-18T00:53:21;6.60;90.50
6375;DHT22;35400;45.472;-122.822;2022-11-18T00:55:48;6.60;90.60
6375;DHT22;35400;45.472;-122.822;2022-11-18T00:58:16;6.50;90.60
6375;DHT22;35400;45.472;-122.822;2022-11-18T01:00:45;6.50;90.50
6375;DHT22;35400;45.472;-122.822;2022-11-18T01:03:14;6.40;90.50
6375;DHT22;35400;45.472;-122.822;2022-11-18T01:05:41;6.40;90.60
6375;DHT22;35400;45.472;-122.822;2022-11-18T01:08:10;6.40;90.60
6375;DHT22;35400;45.472;-122.822;2022-11-18T01:10:38;6.30;90.70
6375;DHT22;35400;45.472;-122.822;2022-11-18T01:13:06;6.30;90.50
6375;DHT22;35400;45.472;-122.822;2022-11-18T01:15:54;6.30;90.70
6375;DHT22;35400;45.472;-122.822;2022-11-18T01:18:28;6.30;90.50
6375;DHT22;35400;45.472;-122.822;2022-11-18T01:21:03;6.30;90.70
6375;DHT22;35400;45.472;-122.822;2022-11-18T01:23:31;6.20;90.60
6375;DHT22;35400;45.472;-122.822;2022-11-18T01:26:06;6.20;90.70
6375;DHT22;35400;45.472;-122.822;2022-11-18T01:28:33;6.20;90.50
6375;DHT22;35400;45.472;-122.822;2022-11-18T01:31:10;6.10;90.50
6375;DHT22;35400;45.472;-122.822;2022-11-18T01:33:38;6.10;90.60
6375;DHT22;35400;45.472;-122.822;2022-11-18T01:36:20;6.10;90.60
6375;DHT22;35400;45.472;-122.822;2022-11-18T01:38:48;6.10;90.60
6375;DHT22;35400;45.472;-122.822;2022-11-18T01:41:15;6.10;90.60
6375;DHT22;35400;45.472;-122.822;2022-11-18T01:46:23;6.00;90.50
6375;DHT22;35400;45.472;-122.822;2022-11-18T01:49:11;6.00;90.50
6375;DHT22;35400;45.472;-122.822;2022-11-18T01:51:50;6.00;90.60
6375;DHT22;35400;45.472;-122.822;2022-11-18T01:54:26;6.00;90.70
6375;DHT22;35400;45.472;-122.822;2022-11-18T01:56:59;6.00;90.40
6375;DHT22;35400;45.472;-122.822;2022-11-18T01:59:30;5.90;90.40
6375;DHT22;35400;45.472;-122.822;2022-11-18T02:02:04;5.90;90.40
6375;DHT22;35400;45.472;-122.822;2022-11-18T02:04:32;5.90;90.40
6375;DHT22;35400;45.472;-122.822;2022-11-18T02:06:59;5.90;90.30
6375;DHT22;35400;45.472;-122.822;2022-11-18T02:09:27;5.90;90.30
6375;DHT22;35400;45.472;-122.822;2022-11-18T02:11:53;5.90;90.20
6375;DHT22;35400;45.472;-122.822;2022-11-18T02:14:27;5.80;90.20
6375;DHT22;35400;45.472;-122.822;2022-11-18T02:30:49;5.80;89.30
6375;DHT22;35400;45.472;-122.822;2022-11-18T02:33:23;5.80;89.40
6375;DHT22;35400;45.472;-122.822;2022-11-18T02:35:57;5.80;88.50
6375;DHT22;35400;45.472;-122.822;2022-11-18T02:38:33;5.80;88.90
6375;DHT22;35400;45.472;-122.822;2022-11-18T02:41:05;5.80;88.80
6375;DHT22;35400;45.472;-122.822;2022-11-18T02:46:08;5.80;88.80
6375;DHT22;35400;45.472;-122.822;2022-11-18T02:48:41;5.70;88.90
6375;DHT22;35400;45.472;-122.822;2022-11-18T02:51:10;5.70;88.20
6375;DHT22;35400;45.472;-122.822;2022-11-18T02:53:39;5.70;88.50
6375;DHT22;35400;45.472;-122.822;2022-11-18T02:56:07;5.70;87.70
6375;DHT22;35400;45.472;-122.822;2022-11-18T02:58:35;5.70;87.80
6375;DHT22;35400;45.472;-122.822;2022-11-18T03:01:02;5.70;87.70
6375;DHT22;35400;45.472;-122.822;2022-11-18T03:03:29;5.70;88.00
6375;DHT22;35400;45.472;-122.822;2022-11-18T03:06:08;5.70;87.80
6375;DHT22;35400;45.472;-122.822;2022-11-18T03:08:51;5.70;87.50
6375;DHT22;35400;45.472;-122.822;2022-11-18T03:11:25;5.60;87.50
6375;DHT22;35400;45.472;-122.822;2022-11-18T03:19:31;5.60;87.10
6375;DHT22;35400;45.472;-122.822;2022-11-18T03:24:32;5.60;86.80
6375;DHT22;35400;45.472;-122.822;2022-11-18T03:28:05;5.60;87.00
6375;DHT22;35400;45.472;-122.822;2022-11-18T03:30:16;5.60;86.50
6375;DHT22;35400;45.472;-122.822;2022-11-18T03:32:57;5.50;86.50
6375;DHT22;35400;45.472;-122.822;2022-11-18T03:35:28;5.60;86.30
6375;DHT22;35400;45.472;-122.822;2022-11-18T03:38:10;5.50;86.30
6375;DHT22;35400;45.472;-122.822;2022-11-18T03:40:41;5.50;86.00
6375;DHT22;35400;45.472;-122.822;2022-11-18T03:43:17;5.50;85.90
6375;DHT22;35400;45.472;-122.822;2022-11-18T03:46:01;5.50;86.10
6375;DHT22;35400;45.472;-122.822;2022-11-18T03:48:35;5.50;85.80
6375;DHT22;35400;45.472;-122.822;2022-11-18T03:51:15;5.50;85.50
6375;DHT22;35400;45.472;-122.822;2022-11-18T03:53:50;5.50;85.90
6375;DHT22;35400;45.472;-122.822;2022-11-18T03:56:23;5.50;85.80
6375;DHT22;35400;45.472;-122.822;2022-11-18T03:59:12;5.50;85.20
6375;DHT22;35400;45.472;-122.822;2022-11-18T04:01:53;5.50;85.40
6375;DHT22;35400;45.472;-122.822;2022-11-18T04:04:23;5.50;84.90
6375;DHT22;35400;45.472;-122.822;2022-11-18T04:07:20;5.50;84.90
6375;DHT22;35400;45.472;-122.822;2022-11-18T04:10:36;5.50;85.10
6375;DHT22;35400;45.472;-122.822;2022-11-18T04:12:54;5.50;85.20
6375;DHT22;35400;45.472;-122.822;2022-11-18T04:15:24;5.40;84.60
6375;DHT22;35400;45.472;-122.822;2022-11-18T04:17:51;5.40;84.70
6375;DHT22;35400;45.472;-122.822;2022-11-18T04:20:20;5.40;84.50
6375;DHT22;35400;45.472;-122.822;2022-11-18T04:22:47;5.40;84.50
6375;DHT22;35400;45.472;-122.822;2022-11-18T04:25:16;5.40;84.50
6375;DHT22;35400;45.472;-122.822;2022-11-18T04:27:43;5.30;84.10
6375;DHT22;35400;45.472;-122.822;2022-11-18T04:30:10;5.30;83.90
6375;DHT22;35400;45.472;-122.822;2022-11-18T04:32:37;5.40;85.00
6375;DHT22;35400;45.472;-122.822;2022-11-18T04:35:05;5.40;84.00
6375;DHT22;35400;45.472;-122.822;2022-11-18T04:37:32;5.30;84.10
6375;DHT22;35400;45.472;-122.822;2022-11-18T04:39:59;5.30;83.90
6375;DHT22;35400;45.472;-122.822;2022-11-18T04:42:26;5.30;83.40
6375;DHT22;35400;45.472;-122.822;2022-11-18T04:44:54;5.30;83.70
6375;DHT22;35400;45.472;-122.822;2022-11-18T04:47:21;5.30;83.80
6375;DHT22;35400;45.472;-122.822;2022-11-18T04:49:48;5.30;83.90
6375;DHT22;35400;45.472;-122.822;2022-11-18T04:52:15;5.20;83.90
6375;DHT22;35400;45.472;-122.822;2022-11-18T04:54:42;5.20;83.60
6375;DHT22;35400;45.472;-122.822;2022-11-18T04:57:09;5.20;84.00
6375;DHT22;35400;45.472;-122.822;2022-11-18T04:59:36;5.20;83.20
6375;DHT22;35400;45.472;-122.822;2022-11-18T05:02:03;5.20;83.10
6375;DHT22;35400;45.472;-122.822;2022-11-18T05:04:33;5.20;82.90
6375;DHT22;35400;45.472;-122.822;2022-11-18T05:07:01;5.20;82.80
6375;DHT22;35400;45.472;-122.822;2022-11-18T05:09:29;5.20;82.90
6375;DHT22;35400;45.472;-122.822;2022-11-18T05:11:56;5.20;82.60
6375;DHT22;35400;45.472;-122.822;2022-11-18T05:14:41;5.20;82.50
6375;DHT22;35400;45.472;-122.822;2022-11-18T05:17:08;5.20;82.80
6375;DHT22;35400;45.472;-122.822;2022-11-18T05:19:38;5.20;82.50
6375;DHT22;35400;45.472;-122.822;2022-11-18T05:22:06;5.20;82.30
6375;DHT22;35400;45.472;-122.822;2022-11-18T05:24:34;5.20;82.80
6375;DHT22;35400;45.472;-122.822;2022-11-18T05:27:01;5.10;82.20
6375;DHT22;35400;45.472;-122.822;2022-11-18T05:29:28;5.10;82.20
6375;DHT22;35400;45.472;-122.822;2022-11-18T05:31:55;5.10;82.30
6375;DHT22;35400;45.472;-122.822;2022-11-18T05:34:24;5.10;82.40
6375;DHT22;35400;45.472;-122.822;2022-11-18T05:36:51;5.10;82.90
6375;DHT22;35400;45.472;-122.822;2022-11-18T05:39:18;5.10;82.10
6375;DHT22;35400;45.472;-122.822;2022-11-18T05:41:45;5.00;81.70
6375;DHT22;35400;45.472;-122.822;2022-11-18T05:44:30;5.00;81.50
6375;DHT22;35400;45.472;-122.822;2022-11-18T05:46:57;5.00;81.20
6375;DHT22;35400;45.472;-122.822;2022-11-18T05:49:25;5.00;81.70
6375;DHT22;35400;45.472;-122.822;2022-11-18T05:51:52;5.00;81.50
6375;DHT22;35400;45.472;-122.822;2022-11-18T05:54:20;5.00;81.20
6375;DHT22;35400;45.472;-122.822;2022-11-18T05:56:47;5.00;81.40
6375;DHT22;35400;45.472;-122.822;2022-11-18T05:59:15;5.00;81.70
6375;DHT22;35400;45.472;-122.822;2022-11-18T06:01:52;4.90;81.10
6375;DHT22;35400;45.472;-122.822;2022-11-18T06:04:44;4.90;81.20
6375;DHT22;35400;45.472;-122.822;2022-11-18T06:07:16;4.90;81.10
6375;DHT22;35400;45.472;-122.822;2022-11-18T06:09:46;4.90;81.30
6375;DHT22;35400;45.472;-122.822;2022-11-18T06:12:17;4.90;81.70
6375;DHT22;35400;45.472;-122.822;2022-11-18T06:14:51;4.90;81.10
6375;DHT22;35400;45.472;-122.822;2022-11-18T06:17:26;4.80;81.00
6375;DHT22;35400;45.472;-122.822;2022-11-18T06:19:56;4.80;81.00
6375;DHT22;35400;45.472;-122.822;2022-11-18T06:22:23;4.80;81.30
6375;DHT22;35400;45.472;-122.822;2022-11-18T06:24:51;4.80;81.50
6375;DHT22;35400;45.472;-122.822;2022-11-18T06:27:18;4.80;81.10
6375;DHT22;35400;45.472;-122.822;2022-11-18T06:29:45;4.80;81.20
6375;DHT22;35400;45.472;-122.822;2022-11-18T06:32:12;4.80;81.80
6375;DHT22;35400;45.472;-122.822;2022-11-18T06:34:39;4.70;81.90
6375;DHT22;35400;45.472;-122.822;2022-11-18T06:37:17;4.70;80.80
6375;DHT22;35400;45.472;-122.822;2022-11-18T06:39:46;4.70;81.00
6375;DHT22;35400;45.472;-122.822;2022-11-18T06:42:12;4.70;81.10
6375;DHT22;35400;45.472;-122.822;2022-11-18T06:45:00;4.70;80.50
6375;DHT22;35400;45.472;-122.822;2022-11-18T06:47:27;4.70;80.20
6375;DHT22;35400;45.472;-122.822;2022-11-18T06:49:54;4.70;80.00
6375;DHT22;35400;45.472;-122.822;2022-11-18T06:52:24;4.70;80.10
6375;DHT22;35400;45.472;-122.822;2022-11-18T06:54:51;4.70;80.40
6375;DHT22;35400;45.472;-122.822;2022-11-18T06:57:18;4.70;80.40
6375;DHT22;35400;45.472;-122.822;2022-11-18T06:59:45;4.70;80.20
6375;DHT22;35400;45.472;-122.822;2022-11-18T07:02:11;4.70;79.90
6375;DHT22;35400;45.472;-122.822;2022-11-18T07:04:39;4.60;79.80
6375;DHT22;35400;45.472;-122.822;2022-11-18T07:07:06;4.60;79.70
6375;DHT22;35400;45.472;-122.822;2022-11-18T07:09:34;4.60;79.90
6375;DHT22;35400;45.472;-122.822;2022-11-18T07:12:02;4.60;79.80
6375;DHT22;35400;45.472;-122.822;2022-11-18T07:14:29;4.60;79.80
6375;DHT22;35400;45.472;-122.822;2022-11-18T07:16:57;4.60;79.80
6375;DHT22;35400;45.472;-122.822;2022-11-18T07:19:24;4.60;79.60
6375;DHT22;35400;45.472;-122.822;2022-11-18T07:21:51;4.60;79.30
6375;DHT22;35400;45.472;-122.822;2022-11-18T07:24:18;4.60;79.20
6375;DHT22;35400;45.472;-122.822;2022-11-18T07:26:45;4.50;79.10
6375;DHT22;35400;45.472;-122.822;2022-11-18T07:29:12;4.50;78.80
6375;DHT22;35400;45.472;-122.822;2022-11-18T07:31:39;4.50;78.50
6375;DHT22;35400;45.472;-122.822;2022-11-18T07:34:06;4.50;78.60
6375;DHT22;35400;45.472;-122.822;2022-11-18T07:36:33;4.50;78.50
6375;DHT22;35400;45.472;-122.822;2022-11-18T07:39:02;4.50;78.40
6375;DHT22;35400;45.472;-122.822;2022-11-18T07:41:30;4.50;78.00
6375;DHT22;35400;45.472;-122.822;2022-11-18T07:43:58;4.50;78.10
6375;DHT22;35400;45.472;-122.822;2022-11-18T07:46:34;4.50;77.90
6375;DHT22;35400;45.472;-122.822;2022-11-18T07:49:03;4.50;78.00
6375;DHT22;35400;45.472;-122.822;2022-11-18T07:51:36;4.50;78.10
6375;DHT22;35400;45.472;-122.822;2022-11-18T07:54:08;4.50;77.90
6375;DHT22;35400;45.472;-122.822;2022-11-18T07:56:35;4.50;77.90
6375;DHT22;35400;45.472;-122.822;2022-11-18T07:59:02;4.40;77.80
6375;DHT22;35400;45.472;-122.822;2022-11-18T08:01:30;4.40;77.40
6375;DHT22;35400;45.472;-122.822;2022-11-18T08:04:03;4.40;77.60
6375;DHT22;35400;45.472;-122.822;2022-11-18T08:06:32;4.40;77.60
6375;DHT22;35400;45.472;-122.822;2022-11-18T08:09:00;4.40;77.50
6375;DHT22;35400;45.472;-122.822;2022-11-18T08:11:28;4.40;77.00
6375;DHT22;35400;45.472;-122.822;2022-11-18T08:13:54;4.40;76.70
6375;DHT22;35400;45.472;-122.822;2022-11-18T08:16:23;4.40;76.70
6375;DHT22;35400;45.472;-122.822;2022-11-18T08:18:51;4.40;77.10
6375;DHT22;35400;45.472;-122.822;2022-11-18T08:21:19;4.40;76.50
6375;DHT22;35400;45.472;-122.822;2022-11-18T08:23:51;4.40;76.00
6375;DHT22;35400;45.472;-122.822;2022-11-18T08:26:19;4.40;76.60
6375;DHT22;35400;45.472;-122.822;2022-11-18T08:28:46;4.40;76.30
6375;DHT22;35400;45.472;-122.822;2022-11-18T08:31:16;4.40;76.30
6375;DHT22;35400;45.472;-122.822;2022-11-18T08:33:44;4.30;76.70
6375;DHT22;35400;45.472;-122.822;2022-11-18T08:36:20;4.30;75.90
6375;DHT22;35400;45.472;-122.822;2022-11-18T08:38:47;4.30;75.90
6375;DHT22;35400;45.472;-122.822;2022-11-18T08:41:17;4.30;75.90
6375;DHT22;35400;45.472;-122.822;2022-11-18T08:43:45;4.30;75.50
6375;DHT22;35400;45.472;-122.822;2022-11-18T08:46:11;4.30;75.80
6375;DHT22;35400;45.472;-122.822;2022-11-18T08:48:38;4.30;76.10
6375;DHT22;35400;45.472;-122.822;2022-11-18T08:51:07;4.30;76.20
6375;DHT22;35400;45.472;-122.822;2022-11-18T08:53:35;4.30;76.00
6375;DHT22;35400;45.472;-122.822;2022-11-18T08:56:02;4.30;76.00
6375;DHT22;35400;45.472;-122.822;2022-11-18T08:58:29;4.20;75.70
6375;DHT22;35400;45.472;-122.822;2022-11-18T09:00:56;4.20;76.10
6375;DHT22;35400;45.472;-122.822;2022-11-18T09:03:23;4.20;76.10
6375;DHT22;35400;45.472;-122.822;2022-11-18T09:05:50;4.20;76.00
6375;DHT22;35400;45.472;-122.822;2022-11-18T09:08:16;4.20;75.70
6375;DHT22;35400;45.472;-122.822;2022-11-18T09:10:43;4.10;76.50
6375;DHT22;35400;45.472;-122.822;2022-11-18T09:13:10;4.10;75.60
6375;DHT22;35400;45.472;-122.822;2022-11-18T09:15:37;4.10;75.60
6375;DHT22;35400;45.472;-122.822;2022-11-18T09:18:04;4.10;75.60
6375;DHT22;35400;45.472;-122.822;2022-11-18T09:20:31;4.10;75.70
6375;DHT22;35400;45.472;-122.822;2022-11-18T09:22:58;4.10;75.60
6375;DHT22;35400;45.472;-122.822;2022-11-18T09:25:25;4.10;75.20
6375;DHT22;35400;45.472;-122.822;2022-11-18T09:27:52;4.10;74.70
6375;DHT22;35400;45.472;-122.822;2022-11-18T09:30:20;4.00;74.90
6375;DHT22;35400;45.472;-122.822;2022-11-18T09:32:48;4.00;75.10
6375;DHT22;35400;45.472;-122.822;2022-11-18T09:35:15;4.00;74.80
6375;DHT22;35400;45.472;-122.822;2022-11-18T09:37:42;4.00;74.40
6375;DHT22;35400;45.472;-122.822;2022-11-18T09:40:18;4.00;74.70
6375;DHT22;35400;45.472;-122.822;2022-11-18T09:43:18;4.00;74.70
6375;DHT22;35400;45.472;-122.822;2022-11-18T09:45:52;3.90;73.90
6375;DHT22;35400;45.472;-122.822;2022-11-18T09:48:22;4.00;74.10
6375;DHT22;35400;45.472;-122.822;2022-11-18T09:51:10;4.00;74.00
6375;DHT22;35400;45.472;-122.822;2022-11-18T09:53:40;4.00;74.30
6375;DHT22;35400;45.472;-122.822;2022-11-18T09:56:15;3.90;74.20
6375;DHT22;35400;45.472;-122.822;2022-11-18T09:58:43;3.90;73.90
6375;DHT22;35400;45.472;-122.822;2022-11-18T10:01:17;3.90;74.30
6375;DHT22;35400;45.472;-122.822;2022-11-18T10:03:45;3.90;74.00
6375;DHT22;35400;45.472;-122.822;2022-11-18T10:06:25;3.80;74.30
6375;DHT22;35400;45.472;-122.822;2022-11-18T10:09:18;3.80;74.40
6375;DHT22;35400;45.472;-122.822;2022-11-18T10:12:02;3.80;74.60
6375;DHT22;35400;45.472;-122.822;2022-11-18T10:22:57;3.60;75.20
6375;DHT22;35400;45.472;-122.822;2022-11-18T10:25:25;3.60;75.90
6375;DHT22;35400;45.472;-122.822;2022-11-18T10:27:52;3.60;75.40
6375;DHT22;35400;45.472;-122.822;2022-11-18T10:30:24;3.50;75.10
6375;DHT22;35400;45.472;-122.822;2022-11-18T10:35:33;3.50;74.70
6375;DHT22;35400;45.472;-122.822;2022-11-18T10:38:06;3.50;74.70
6375;DHT22;35400;45.472;-122.822;2022-11-18T10:41:01;3.50;75.20
6375;DHT22;35400;45.472;-122.822;2022-11-18T10:43:49;3.50;75.20
6375;DHT22;35400;45.472;-122.822;2022-11-18T10:46:33;3.50;74.60
6375;DHT22;35400;45.472;-122.822;2022-11-18T10:51:48;3.50;75.00
6375;DHT22;35400;45.472;-122.822;2022-11-18T10:54:29;3.50;74.70
6375;DHT22;35400;45.472;-122.822;2022-11-18T11:02:32;3.40;74.40
6375;DHT22;35400;45.472;-122.822;2022-11-18T11:05:16;3.40;73.60
6375;DHT22;35400;45.472;-122.822;2022-11-18T11:07:44;3.50;72.90
6375;DHT22;35400;45.472;-122.822;2022-11-18T11:13:14;3.60;72.50
6375;DHT22;35400;45.472;-122.822;2022-11-18T11:15:37;3.60;71.90
6375;DHT22;35400;45.472;-122.822;2022-11-18T11:20:54;3.70;72.10
6375;DHT22;35400;45.472;-122.822;2022-11-18T11:23:24;3.70;72.00
6375;DHT22;35400;45.472;-122.822;2022-11-18T11:31:21;3.70;72.40
6375;DHT22;35400;45.472;-122.822;2022-11-18T11:36:49;3.70;72.00
6375;DHT22;35400;45.472;-122.822;2022-11-18T11:39:48;3.70;72.00
6375;DHT22;35400;45.472;-122.822;2022-11-18T11:42:38;3.70;71.90
6375;DHT22;35400;45.472;-122.822;2022-11-18T11:53:21;3.60;72.50
6375;DHT22;35400;45.472;-122.822;2022-11-18T11:55:53;3.60;72.90
6375;DHT22;35400;45.472;-122.822;2022-11-18T12:04:26;3.50;72.40
6375;DHT22;35400;45.472;-122.822;2022-11-18T12:06:57;3.50;71.70
6375;DHT22;35400;45.472;-122.822;2022-11-18T12:09:50;3.50;71.80
6375;DHT22;35400;45.472;-122.822;2022-11-18T12:12:37;3.50;72.20
6375;DHT22;35400;45.472;-122.822;2022-11-18T12:15:39;3.50;72.20
6375;DHT22;35400;45.472;-122.822;2022-11-18T12:20:52;3.50;72.50
6375;DHT22;35400;45.472;-122.822;2022-11-18T12:23:33;3.50;72.50
6375;DHT22;35400;45.472;-122.822;2022-11-18T12:26:05;3.50;73.00
6375;DHT22;35400;45.472;-122.822;2022-11-18T12:36:36;3.30;74.60
6375;DHT22;35400;45.472;-122.822;2022-11-18T12:41:53;3.10;74.80
6375;DHT22;35400;45.472;-122.822;2022-11-18T12:44:40;3.10;74.70
6375;DHT22;35400;45.472;-122.822;2022-11-18T12:47:11;3.00;75.10
6375;DHT22;35400;45.472;-122.822;2022-11-18T12:55:02;2.90;76.30
6375;DHT22;35400;45.472;-122.822;2022-11-18T12:57:32;2.90;76.60
6375;DHT22;35400;45.472;-122.822;2022-11-18T13:02:51;2.70;76.80
6375;DHT22;35400;45.472;-122.822;2022-11-18T13:05:21;2.70;77.50
6375;DHT22;35400;45.472;-122.822;2022-11-18T13:13:32;2.50;78.30
6375;DHT22;35400;45.472;-122.822;2022-11-18T13:16:25;2.40;78.40
6375;DHT22;35400;45.472;-122.822;2022-11-18T13:19:21;2.30;78.60
6375;DHT22;35400;45.472;-122.822;2022-11-18T13:21:58;2.20;78.80
6375;DHT22;35400;45.472;-122.822;2022-11-18T13:24:52;2.20;78.70
6375;DHT22;35400;45.472;-122.822;2022-11-18T13:27:48;2.20;78.80
6375;DHT22;35400;45.472;-122.822;2022-11-18T13:30:17;2.10;77.10
6375;DHT22;35400;45.472;-122.822;2022-11-18T13:32:46;2.20;76.10
6375;DHT22;35400;45.472;-122.822;2022-11-18T13:37:56;2.40;74.60
6375;DHT22;35400;45.472;-122.822;2022-11-18T13:40:46;2.40;74.60
6375;DHT22;35400;45.472;-122.822;2022-11-18T13:43:38;2.50;75.10
6375;DHT22;35400;45.472;-122.822;2022-11-18T13:46:11;2.50;74.50
6375;DHT22;35400;45.472;-122.822;2022-11-18T13:48:48;2.60;74.90
6375;DHT22;35400;45.472;-122.822;2022-11-18T13:51:17;2.60;74.00
6375;DHT22;35400;45.472;-122.822;2022-11-18T13:53:44;2.60;74.60
6375;DHT22;35400;45.472;-122.822;2022-11-18T13:56:16;2.60;75.40
6375;DHT22;35400;45.472;-122.822;2022-11-18T14:01:18;2.60;74.60
6375;DHT22;35400;45.472;-122.822;2022-11-18T14:06:43;2.60;74.00
6375;DHT22;35400;45.472;-122.822;2022-11-18T14:09:29;2.60;73.20
6375;DHT22;35400;45.472;-122.822;2022-11-18T14:12:03;2.70;73.80
6375;DHT22;35400;45.472;-122.822;2022-11-18T14:14:38;2.70;74.90
6375;DHT22;35400;45.472;-122.822;2022-11-18T14:17:21;2.70;74.20
6375;DHT22;35400;45.472;-122.822;2022-11-18T14:19:57;2.70;72.30
6375;DHT22;35400;45.472;-122.822;2022-11-18T14:22:26;2.80;71.70
6375;DHT22;35400;45.472;-122.822;2022-11-18T14:24:58;2.80;72.40
6375;DHT22;35400;45.472;-122.822;2022-11-18T14:27:42;2.80;71.80
6375;DHT22;35400;45.472;-122.822;2022-11-18T14:38:40;3.00;70.50
6375;DHT22;35400;45.472;-122.822;2022-11-18T14:41:10;3.10;69.70
6375;DHT22;35400;45.472;-122.822;2022-11-18T14:43:37;3.20;69.60
6375;DHT22;35400;45.472;-122.822;2022-11-18T14:46:15;3.20;69.60
6375;DHT22;35400;45.472;-122.822;2022-11-18T14:48:44;3.30;70.30
6375;DHT22;35400;45.472;-122.822;2022-11-18T14:51:15;3.30;70.30
6375;DHT22;35400;45.472;-122.822;2022-11-18T14:53:43;3.30;70.20
6375;DHT22;35400;45.472;-122.822;2022-11-18T14:56:29;3.30;70.30
6375;DHT22;35400;45.472;-122.822;2022-11-18T14:58:57;3.30;70.90
6375;DHT22;35400;45.472;-122.822;2022-11-18T15:01:24;3.30;70.40
6375;DHT22;35400;45.472;-122.822;2022-11-18T15:03:53;3.30;70.90
6375;DHT22;35400;45.472;-122.822;2022-11-18T15:06:21;3.30;70.70
6375;DHT22;35400;45.472;-122.822;2022-11-18T15:08:50;3.30;70.70
6375;DHT22;35400;45.472;-122.822;2022-11-18T15:11:17;3.30;71.30
6375;DHT22;35400;45.472;-122.822;2022-11-18T15:13:47;3.30;70.70
6375;DHT22;35400;45.472;-122.822;2022-11-18T15:16:22;3.30;70.60
6375;DHT22;35400;45.472;-122.822;2022-11-18T15:18:56;3.30;70.90
6375;DHT22;35400;45.472;-122.822;2022-11-18T15:21:24;3.30;71.10
6375;DHT22;35400;45.472;-122.822;2022-11-18T15:23:51;3.30;70.90
6375;DHT22;35400;45.472;-122.822;2022-11-18T15:26:54;3.30;70.90
6375;DHT22;35400;45.472;-122.822;2022-11-18T15:29:20;3.30;70.60
6375;DHT22;35400;45.472;-122.822;2022-11-18T15:31:47;3.30;70.60
6375;DHT22;35400;45.472;-122.822;2022-11-18T15:34:16;3.30;70.90
6375;DHT22;35400;45.472;-122.822;2022-11-18T15:36:44;3.40;71.50
6375;DHT22;35400;45.472;-122.822;2022-11-18T15:39:11;3.30;71.90
6375;DHT22;35400;45.472;-122.822;2022-11-18T15:41:40;3.30;71.80
6375;DHT22;35400;45.472;-122.822;2022-11-18T15:44:10;3.30;72.50
6375;DHT22;35400;45.472;-122.822;2022-11-18T15:46:37;3.30;72.90
6375;DHT22;35400;45.472;-122.822;2022-11-18T15:49:04;3.30;73.40
6375;DHT22;35400;45.472;-122.822;2022-11-18T15:51:31;3.30;72.20
6375;DHT22;35400;45.472;-122.822;2022-11-18T15:53:59;3.30;72.60
6375;DHT22;35400;45.472;-122.822;2022-11-18T15:56:28;3.30;73.20
6375;DHT22;35400;45.472;-122.822;2022-11-18T15:58:59;3.30;73.70
6375;DHT22;35400;45.472;-122.822;2022-11-18T16:01:34;3.40;73.60
6375;DHT22;35400;45.472;-122.822;2022-11-18T16:04:03;3.40;72.40
6375;DHT22;35400;45.472;-122.822;2022-11-18T16:06:30;3.50;71.60
6375;DHT22;35400;45.472;-122.822;2022-11-18T16:08:58;3.50;71.30
6375;DHT22;35400;45.472;-122.822;2022-11-18T16:11:25;3.60;71.40
6375;DHT22;35400;45.472;-122.822;2022-11-18T16:14:12;3.70;71.00
6375;DHT22;35400;45.472;-122.822;2022-11-18T16:16:41;3.80;71.30
6375;DHT22;35400;45.472;-122.822;2022-11-18T16:19:10;3.80;70.70
6375;DHT22;35400;45.472;-122.822;2022-11-18T16:21:40;3.90;70.90
6375;DHT22;35400;45.472;-122.822;2022-11-18T16:24:12;4.00;70.10
6375;DHT22;35400;45.472;-122.822;2022-11-18T16:26:39;4.00;70.00
6375;DHT22;35400;45.472;-122.822;2022-11-18T16:29:06;4.10;69.50
6375;DHT22;35400;45.472;-122.822;2022-11-18T16:31:34;4.20;69.50
6375;DHT22;35400;45.472;-122.822;2022-11-18T16:34:13;4.20;69.10
6375;DHT22;35400;45.472;-122.822;2022-11-18T16:36:43;4.30;68.80
6375;DHT22;35400;45.472;-122.822;2022-11-18T16:39:16;4.40;68.80
6375;DHT22;35400;45.472;-122.822;2022-11-18T16:41:44;4.40;67.90
6375;DHT22;35400;45.472;-122.822;2022-11-18T16:44:13;4.50;68.80
6375;DHT22;35400;45.472;-122.822;2022-11-18T16:46:45;4.60;67.90
6375;DHT22;35400;45.472;-122.822;2022-11-18T16:49:13;4.60;66.60
6375;DHT22;35400;45.472;-122.822;2022-11-18T16:51:42;4.70;67.00
6375;DHT22;35400;45.472;-122.822;2022-11-18T16:54:18;4.80;66.20
6375;DHT22;35400;45.472;-122.822;2022-11-18T16:56:47;4.80;66.00
6375;DHT22;35400;45.472;-122.822;2022-11-18T16:59:16;4.90;65.90
6375;DHT22;35400;45.472;-122.822;2022-11-18T17:01:44;4.90;66.50
6375;DHT22;35400;45.472;-122.822;2022-11-18T17:04:11;5.00;67.40
6375;DHT22;35400;45.472;-122.822;2022-11-18T17:06:38;5.00;66.00
6375;DHT22;35400;45.472;-122.822;2022-11-18T17:09:07;5.10;65.80
6375;DHT22;35400;45.472;-122.822;2022-11-18T17:11:38;5.10;65.80
6375;DHT22;35400;45.472;-122.822;2022-11-18T17:14:05;5.20;64.80
6375;DHT22;35400;45.472;-122.822;2022-11-18T17:16:32;5.20;64.80
6375;DHT22;35400;45.472;-122.822;2022-11-18T17:18:59;5.30;63.40
6375;DHT22;35400;45.472;-122.822;2022-11-18T17:21:27;5.30;63.80
6375;DHT22;35400;45.472;-122.822;2022-11-18T17:23:55;5.30;64.00
6375;DHT22;35400;45.472;-122.822;2022-11-18T17:26:26;5.40;64.10
6375;DHT22;35400;45.472;-122.822;2022-11-18T17:28:57;5.40;64.20
6375;DHT22;35400;45.472;-122.822;2022-11-18T17:31:24;5.50;64.30
6375;DHT22;35400;45.472;-122.822;2022-11-18T17:33:52;5.50;63.40
6375;DHT22;35400;45.472;-122.822;2022-11-18T17:36:22;5.60;63.20
6375;DHT22;35400;45.472;-122.822;2022-11-18T17:38:51;5.60;63.60
6375;DHT22;35400;45.472;-122.822;2022-11-18T17:41:21;5.60;63.30